sensor_id;sensor_type;location;lat;lon;timestamp;pressure;altitude;pressure_sealevel;temperature;humidity
49843;BME280;55559;48.898;9.184;2023-04-22T00:02:05;97799.78;;;11.35;100.00
49843;BME280;55559;48.898;9.184;2023-04-22T00:04:32;97798.72;;;11.28;100.00
49843;BME280;55559;48.898;9.184;2023-04-22T00:07:00;97808.34;;;11.21;100.00
49843;BME280;55559;48.898;9.184;2023-04-22T00:09:28;97804.34;;;11.16;100.00
49843;BME280;55559;48.898;9.184;2023-04-22T00:11:57;97804.94;;;11.10;100.00
49843;BME280;55559;48.898;9.184;2023-04-22T00:14:25;97796.66;;;11.13;100.00
49843;BME280;55559;48.898;9.184;2023-04-22T00:16:52;97804.34;;;11.16;100.00
49843;BME280;55559;48.898;9.184;2023-04-22T00:19:20;97788.53;;;11.15;100.00
49843;BME280;55559;48.898;9.184;2023-04-22T00:21:47;97793.41;;;11.28;100.00
49843;BME280;55559;48.898;9.184;2023-04-22T00:24:15;97789.56;;;11.22;100.00
49843;BME280;55559;48.898;9.184;2023-04-22T00:26:42;97784.03;;;11.15;100.00
49843;BME280;55559;48.898;9.184;2023-04-22T00:29:11;97794.16;;;11.12;100.00
49843;BME280;55559;48.898;9.184;2023-04-22T00:31:39;97794.47;;;11.09;100.00
49843;BME280;55559;48.898;9.184;2023-04-22T00:34:06;97787.31;;;11.09;100.00
49843;BME280;55559;48.898;9.184;2023-04-22T00:36:34;97785.81;;;11.07;100.00
49843;BME280;55559;48.898;9.184;2023-04-22T00:39:01;97793.41;;;11.02;100.00
49843;BME280;55559;48.898;9.184;2023-04-22T00:41:29;97783.91;;;10.99;100.00
49843;BME280;55559;48.898;9.184;2023-04-22T00:43:57;97788.41;;;10.98;100.00
49843;BME280;55559;48.898;9.184;2023-04-22T00:46:27;97789.22;;;10.99;100.00
49843;BME280;55559;48.898;9.184;2023-04-22T00:48:56;97788.09;;;11.02;100.00
49843;BME280;55559;48.898;9.184;2023-04-22T00:51:23;97783.75;;;11.01;100.00
49843;BME280;55559;48.898;9.184;2023-04-22T00:53:51;97787.03;;;10.94;100.00
49843;BME280;55559;48.898;9.184;2023-04-22T00:56:19;97792.91;;;10.98;100.00
49843;BME280;55559;48.898;9.184;2023-04-22T00:58:48;97798.53;;;10.95;100.00
49843;BME280;55559;48.898;9.184;2023-04-22T01:01:16;97799.34;;;10.95;100.00
49843;BME280;55559;48.898;9.184;2023-04-22T01:03:45;97791.38;;;10.95;100.00
49843;BME280;55559;48.898;9.184;2023-04-22T01:06:14;97789.03;;;10.92;100.00
49843;BME280;55559;48.898;9.184;2023-04-22T01:08:43;97791.53;;;10.94;100.00
49843;BME280;55559;48.898;9.184;2023-04-22T01:11:10;97787.88;;;10.95;100.00
49843;BME280;55559;48.898;9.184;2023-04-22T01:13:44;97790.53;;;10.95;100.00
49843;BME280;55559;48.898;9.184;2023-04-22T01:16:15;97792.53;;;10.93;100.00
49843;BME280;55559;48.898;9.184;2023-04-22T01:18:48;97784.06;;;10.97;100.00
49843;BME280;55559;48.898;9.184;2023-04-22T01:21:16;97790.41;;;10.96;100.00
49843;BME280;55559;48.898;9.184;2023-04-22T01:23:46;97777.25;;;10.95;100.00
49843;BME280;55559;48.898;9.184;2023-04-22T01:26:14;97788.09;;;11.02;100.00
49843;BME280;55559;48.898;9.184;2023-04-22T01:28:42;97789.22;;;10.99;100.00
49843;BME280;55559;48.898;9.184;2023-04-22T01:31:09;97789.22;;;10.99;100.00
49843;BME280;55559;48.898;9.184;2023-04-22T01:33:37;97782.09;;;11.00;100.00
49843;BME280;55559;48.898;9.184;2023-04-22T01:36:05;97780.34;;;11.08;100.00
49843;BME280;55559;48.898;9.184;2023-04-22T01:38:33;97777.44;;;11.28;100.00
49843;BME280;55559;48.898;9.184;2023-04-22T01:41:04;97772.34;;;11.43;100.00
49843;BME280;55559;48.898;9.184;2023-04-22T01:43:32;97776.44;;;11.29;100.00
49843;BME280;55559;48.898;9.184;2023-04-22T01:46:01;97773.75;;;11.21;100.00
49843;BME280;55559;48.898;9.184;2023-04-22T01:48:31;97774.72;;;11.20;100.00
49843;BME280;55559;48.898;9.184;2023-04-22T01:50:58;97781.38;;;11.15;100.00
49843;BME280;55559;48.898;9.184;2023-04-22T01:53:26;97783.50;;;11.12;100.00
49843;BME280;55559;48.898;9.184;2023-04-22T01:55:53;97792.63;;;11.09;100.00
49843;BME280;55559;48.898;9.184;2023-04-22T01:58:22;97789.59;;;11.04;100.00
49843;BME280;55559;48.898;9.184;2023-04-22T02:00:50;97781.25;;;10.99;100.00
49843;BME280;55559;48.898;9.184;2023-04-22T02:03:18;97782.25;;;10.98;100.00
49843;BME280;55559;48.898;9.184;2023-04-22T02:05:45;97789.38;;;10.97;100.00
49843;BME280;55559;48.898;9.184;2023-04-22T02:08:13;97782.09;;;11.00;100.00
49843;BME280;55559;48.898;9.184;2023-04-22T02:10:43;97786.72;;;10.97;100.00
49843;BME280;55559;48.898;9.184;2023-04-22T02:13:10;97792.03;;;10.97;100.00
49843;BME280;55559;48.898;9.184;2023-04-22T02:15:39;97794.84;;;10.96;100.00
49843;BME280;55559;48.898;9.184;2023-04-22T02:18:07;97799.66;;;10.92;100.00
49843;BME280;55559;48.898;9.184;2023-04-22T02:20:35;97803.47;;;10.90;100.00
49843;BME280;55559;48.898;9.184;2023-04-22T02:23:03;97810.38;;;10.83;100.00
49843;BME280;55559;48.898;9.184;2023-04-22T02:25:30;97807.06;;;10.80;100.00
49843;BME280;55559;48.898;9.184;2023-04-22T02:27:58;97802.91;;;10.78;100.00
49843;BME280;55559;48.898;9.184;2023-04-22T02:30:25;97800.38;;;10.76;100.00
49843;BME280;55559;48.898;9.184;2023-04-22T02:32:54;97809.03;;;10.78;100.00
49843;BME280;55559;48.898;9.184;2023-04-22T02:35:22;97803.03;;;10.76;100.00
49843;BME280;55559;48.898;9.184;2023-04-22T02:37:50;97806.81;;;10.74;100.00
49843;BME280;55559;48.898;9.184;2023-04-22T02:40:17;97801.81;;;10.71;100.00
49843;BME280;55559;48.898;9.184;2023-04-22T02:42:45;97800.00;;;10.71;100.00
49843;BME280;55559;48.898;9.184;2023-04-22T02:45:13;97805.63;;;10.68;100.00
49843;BME280;55559;48.898;9.184;2023-04-22T02:47:42;97813.31;;;10.71;100.00
49843;BME280;55559;48.898;9.184;2023-04-22T02:50:11;97807.31;;;10.69;100.00
49843;BME280;55559;48.898;9.184;2023-04-22T02:52:39;97805.78;;;10.85;100.00
49843;BME280;55559;48.898;9.184;2023-04-22T02:55:07;97806.44;;;10.87;100.00
49843;BME280;55559;48.898;9.184;2023-04-22T02:57:35;97808.44;;;10.85;100.00
49843;BME280;55559;48.898;9.184;2023-04-22T03:00:03;97804.09;;;10.84;100.00
49843;BME280;55559;48.898;9.184;2023-04-22T03:02:31;97802.03;;;10.77;100.00
49843;BME280;55559;48.898;9.184;2023-04-22T03:05:08;97808.66;;;10.73;100.00
49843;BME280;55559;48.898;9.184;2023-04-22T03:07:38;97799.38;;;10.77;100.00
49843;BME280;55559;48.898;9.184;2023-04-22T03:10:06;97794.69;;;10.71;100.00
49843;BME280;55559;48.898;9.184;2023-04-22T03:12:34;97800.69;;;10.73;100.00
49843;BME280;55559;48.898;9.184;2023-04-22T03:15:02;97803.03;;;10.76;100.00
49843;BME280;55559;48.898;9.184;2023-04-22T03:17:30;97799.06;;;10.80;100.00
49843;BME280;55559;48.898;9.184;2023-04-22T03:20:00;97793.69;;;10.72;100.00
49843;BME280;55559;48.898;9.184;2023-04-22T03:22:28;97792.34;;;10.68;100.00
49843;BME280;55559;48.898;9.184;2023-04-22T03:24:59;97792.94;;;10.62;100.00
49843;BME280;55559;48.898;9.184;2023-04-22T03:27:28;97787.41;;;10.55;100.00
49843;BME280;55559;48.898;9.184;2023-04-22T03:29:55;97800.16;;;10.52;100.00
49843;BME280;55559;48.898;9.184;2023-04-22T03:32:23;97798.13;;;10.46;100.00
49843;BME280;55559;48.898;9.184;2023-04-22T03:35:05;97805.88;;;10.39;100.00
49843;BME280;55559;48.898;9.184;2023-04-22T03:37:33;97808.84;;;10.36;100.00
49843;BME280;55559;48.898;9.184;2023-04-22T03:40:03;97801.28;;;10.31;100.00
49843;BME280;55559;48.898;9.184;2023-04-22T03:42:31;97808.88;;;10.26;100.00
49843;BME280;55559;48.898;9.184;2023-04-22T03:44:59;97810.16;;;10.22;100.00
49843;BME280;55559;48.898;9.184;2023-04-22T03:47:31;97814.25;;;10.16;100.00
49843;BME280;55559;48.898;9.184;2023-04-22T03:50:06;97815.16;;;10.07;100.00
49843;BME280;55559;48.898;9.184;2023-04-22T03:52:34;97811.41;;;10.00;100.00
49843;BME280;55559;48.898;9.184;2023-04-22T03:55:04;97814.22;;;9.98;100.00
49843;BME280;55559;48.898;9.184;2023-04-22T03:57:32;97818.00;;;9.96;100.00
49843;BME280;55559;48.898;9.184;2023-04-22T04:00:00;97817.88;;;9.97;100.00
49843;BME280;55559;48.898;9.184;2023-04-22T04:02:29;97816.47;;;9.93;100.00
49843;BME280;55559;48.898;9.184;2023-04-22T04:04:58;97817.47;;;9.92;100.00
49843;BME280;55559;48.898;9.184;2023-04-22T04:07:27;97810.47;;;9.91;100.00
49843;BME280;55559;48.898;9.184;2023-04-22T04:09:54;97811.25;;;10.01;100.00
49843;BME280;55559;48.898;9.184;2023-04-22T04:12:23;97800.09;;;9.98;100.00
49843;BME280;55559;48.898;9.184;2023-04-22T04:14:51;97805.41;;;9.98;100.00
49843;BME280;55559;48.898;9.184;2023-04-22T04:17:19;97809.22;;;9.95;100.00
49843;BME280;55559;48.898;9.184;2023-04-22T04:19:52;97803.66;;;9.89;100.00
49843;BME280;55559;48.898;9.184;2023-04-22T04:22:20;97801.16;;;9.87;100.00
49843;BME280;55559;48.898;9.184;2023-04-22T04:24:55;97801.06;;;9.79;100.00
49843;BME280;55559;48.898;9.184;2023-04-22T04:27:29;97797.41;;;9.80;100.00
49843;BME280;55559;48.898;9.184;2023-04-22T04:29:56;97796.72;;;9.78;100.00
49843;BME280;55559;48.898;9.184;2023-04-22T04:32:36;97796.31;;;9.73;100.00
49843;BME280;55559;48.898;9.184;2023-04-22T04:35:08;97793.53;;;9.74;100.00
49843;BME280;55559;48.898;9.184;2023-04-22T04:37:38;97802.47;;;9.73;100.00
49843;BME280;55559;48.898;9.184;2023-04-22T04:40:09;97798.00;;;9.74;100.00
49843;BME280;55559;48.898;9.184;2023-04-22T04:42:51;97797.72;;;9.77;100.00
49843;BME280;55559;48.898;9.184;2023-04-22T04:45:25;97789.88;;;9.75;100.00
49843;BME280;55559;48.898;9.184;2023-04-22T04:47:54;97789.75;;;9.77;100.00
49843;BME280;55559;48.898;9.184;2023-04-22T04:50:26;97791.78;;;9.83;100.00
49843;BME280;55559;48.898;9.184;2023-04-22T04:52:59;97793.63;;;9.82;100.00
49843;BME280;55559;48.898;9.184;2023-04-22T04:55:33;97796.94;;;9.84;100.00
49843;BME280;55559;48.898;9.184;2023-04-22T04:58:07;97789.53;;;9.88;100.00
49843;BME280;55559;48.898;9.184;2023-04-22T05:00:34;97795.69;;;9.89;100.00
49843;BME280;55559;48.898;9.184;2023-04-22T05:03:02;97792.75;;;9.92;100.00
49843;BME280;55559;48.898;9.184;2023-04-22T05:05:30;97796.75;;;9.96;100.00
49843;BME280;55559;48.898;9.184;2023-04-22T05:07:57;97798.81;;;10.02;100.00
49843;BME280;55559;48.898;9.184;2023-04-22T05:10:26;97794.50;;;10.01;100.00
49843;BME280;55559;48.898;9.184;2023-04-22T05:12:55;97791.09;;;10.09;100.00
49843;BME280;55559;48.898;9.184;2023-04-22T05:15:25;97790.19;;;10.18;100.00
49843;BME280;55559;48.898;9.184;2023-04-22T05:17:53;97790.72;;;10.21;100.00
49843;BME280;55559;48.898;9.184;2023-04-22T05:20:20;97785.34;;;10.31;100.00
49843;BME280;55559;48.898;9.184;2023-04-22T05:22:48;97792.59;;;10.39;100.00
49843;BME280;55559;48.898;9.184;2023-04-22T05:25:16;97789.59;;;10.42;100.00
49843;BME280;55559;48.898;9.184;2023-04-22T05:27:53;97791.81;;;10.47;100.00
49843;BME280;55559;48.898;9.184;2023-04-22T05:30:24;97794.84;;;10.52;100.00
49843;BME280;55559;48.898;9.184;2023-04-22T05:32:52;97793.25;;;10.59;100.00
49843;BME280;55559;48.898;9.184;2023-04-22T05:35:20;97794.47;;;10.65;100.00
49843;BME280;55559;48.898;9.184;2023-04-22T05:37:47;97797.66;;;10.68;100.00
49843;BME280;55559;48.898;9.184;2023-04-22T05:40:15;97792.78;;;10.82;100.00
49843;BME280;55559;48.898;9.184;2023-04-22T05:42:42;97794.25;;;10.76;100.00
49843;BME280;55559;48.898;9.184;2023-04-22T05:45:10;97800.06;;;10.79;100.00
49843;BME280;55559;48.898;9.184;2023-04-22T05:47:40;97801.88;;;10.79;100.00
49843;BME280;55559;48.898;9.184;2023-04-22T05:50:08;97800.75;;;10.82;100.00
49843;BME280;55559;48.898;9.184;2023-04-22T05:52:43;97799.88;;;10.99;100.00
49843;BME280;55559;48.898;9.184;2023-04-22T05:55:13;97791.59;;;11.02;100.00
49843;BME280;55559;48.898;9.184;2023-04-22T05:57:43;97798.97;;;11.08;100.00
49843;BME280;55559;48.898;9.184;2023-04-22T06:00:37;97796.00;;;11.20;100.00
49843;BME280;55559;48.898;9.184;2023-04-22T06:03:22;97810.84;;;11.22;100.00
49843;BME280;55559;48.898;9.184;2023-04-22T06:05:49;97805.41;;;11.32;100.00
49843;BME280;55559;48.898;9.184;2023-04-22T06:08:19;97798.91;;;11.61;100.00
49843;BME280;55559;48.898;9.184;2023-04-22T06:10:49;97796.16;;;11.87;100.00
49843;BME280;55559;48.898;9.184;2023-04-22T06:13:17;97793.81;;;12.26;100.00
49843;BME280;55559;48.898;9.184;2023-04-22T06:15:44;97795.19;;;12.47;100.00
49843;BME280;55559;48.898;9.184;2023-04-22T06:18:12;97788.84;;;12.64;100.00
49843;BME280;55559;48.898;9.184;2023-04-22T06:20:41;97789.34;;;13.09;100.00
49843;BME280;55559;48.898;9.184;2023-04-22T06:23:09;97798.84;;;13.12;100.00
49843;BME280;55559;48.898;9.184;2023-04-22T06:25:36;97793.22;;;12.90;100.00
49843;BME280;55559;48.898;9.184;2023-04-22T06:28:04;97794.69;;;12.68;100.00
49843;BME280;55559;48.898;9.184;2023-04-22T06:30:34;97799.34;;;12.66;100.00
49843;BME280;55559;48.898;9.184;2023-04-22T06:33:01;97803.53;;;12.69;100.00
49843;BME280;55559;48.898;9.184;2023-04-22T06:35:28;97802.53;;;12.78;100.00
49843;BME280;55559;48.898;9.184;2023-04-22T06:37:58;97803.56;;;12.77;100.00
49843;BME280;55559;48.898;9.184;2023-04-22T06:40:30;97799.69;;;12.96;100.00
49843;BME280;55559;48.898;9.184;2023-04-22T06:43:23;97803.03;;;12.90;100.00
49843;BME280;55559;48.898;9.184;2023-04-22T06:46:10;97804.38;;;13.02;100.00
49843;BME280;55559;48.898;9.184;2023-04-22T06:48:57;97812.16;;;13.28;100.00
49843;BME280;55559;48.898;9.184;2023-04-22T06:51:43;97800.00;;;13.34;100.00
49843;BME280;55559;48.898;9.184;2023-04-22T06:54:13;97815.16;;;13.25;100.00
49843;BME280;55559;48.898;9.184;2023-04-22T06:56:41;97802.53;;;13.11;100.00
49843;BME280;55559;48.898;9.184;2023-04-22T06:59:08;97806.50;;;13.07;100.00
49843;BME280;55559;48.898;9.184;2023-04-22T07:01:36;97803.19;;;13.05;100.00
49843;BME280;55559;48.898;9.184;2023-04-22T07:04:04;97803.34;;;13.19;100.00
49843;BME280;55559;48.898;9.184;2023-04-22T07:06:31;97806.19;;;13.34;100.00
49843;BME280;55559;48.898;9.184;2023-04-22T07:08:59;97808.53;;;13.37;100.00
49843;BME280;55559;48.898;9.184;2023-04-22T07:11:28;97809.13;;;13.56;100.00
49843;BME280;55559;48.898;9.184;2023-04-22T07:14:00;97801.63;;;13.51;100.00
49843;BME280;55559;48.898;9.184;2023-04-22T07:16:28;97802.28;;;13.53;100.00
49843;BME280;55559;48.898;9.184;2023-04-22T07:18:55;97804.59;;;13.65;100.00
49843;BME280;55559;48.898;9.184;2023-04-22T07:21:24;97794.06;;;13.63;100.00
49843;BME280;55559;48.898;9.184;2023-04-22T07:23:51;97794.72;;;13.73;100.00
49843;BME280;55559;48.898;9.184;2023-04-22T07:26:18;97790.63;;;13.86;100.00
49843;BME280;55559;48.898;9.184;2023-04-22T07:28:47;97790.56;;;14.02;100.00
49843;BME280;55559;48.898;9.184;2023-04-22T07:31:15;97781.81;;;14.40;100.00
49843;BME280;55559;48.898;9.184;2023-04-22T07:33:42;97786.72;;;14.59;100.00
49843;BME280;55559;48.898;9.184;2023-04-22T07:36:10;97787.41;;;14.99;100.00
49843;BME280;55559;48.898;9.184;2023-04-22T07:38:37;97777.72;;;15.13;100.00
49843;BME280;55559;48.898;9.184;2023-04-22T07:41:05;97768.03;;;15.27;100.00
49843;BME280;55559;48.898;9.184;2023-04-22T07:43:32;97780.69;;;15.63;100.00
49843;BME280;55559;48.898;9.184;2023-04-22T07:46:01;97773.97;;;15.67;100.00
49843;BME280;55559;48.898;9.184;2023-04-22T07:48:29;97782.66;;;15.99;100.00
49843;BME280;55559;48.898;9.184;2023-04-22T07:50:57;97784.38;;;16.07;100.00
49843;BME280;55559;48.898;9.184;2023-04-22T07:53:24;97781.47;;;16.23;100.00
49843;BME280;55559;48.898;9.184;2023-04-22T07:55:52;97778.94;;;16.36;100.00
49843;BME280;55559;48.898;9.184;2023-04-22T07:58:19;97774.31;;;16.30;100.00
49843;BME280;55559;48.898;9.184;2023-04-22T08:00:46;97779.88;;;16.29;100.00
49843;BME280;55559;48.898;9.184;2023-04-22T08:03:15;97784.59;;;16.27;100.00
49843;BME280;55559;48.898;9.184;2023-04-22T08:05:43;97792.34;;;16.36;100.00
49843;BME280;55559;48.898;9.184;2023-04-22T08:08:10;97789.63;;;16.15;100.00
49843;BME280;55559;48.898;9.184;2023-04-22T08:10:38;97800.34;;;16.51;100.00
49843;BME280;55559;48.898;9.184;2023-04-22T08:13:05;97804.44;;;16.47;100.00
49843;BME280;55559;48.898;9.184;2023-04-22T08:15:33;97803.16;;;16.43;100.00
49843;BME280;55559;48.898;9.184;2023-04-22T08:18:00;97802.16;;;16.44;100.00
49843;BME280;55559;48.898;9.184;2023-04-22T08:20:29;97804.84;;;16.44;100.00
49843;BME280;55559;48.898;9.184;2023-04-22T08:22:56;97798.09;;;16.33;100.00
49843;BME280;55559;48.898;9.184;2023-04-22T08:25:25;97800.06;;;16.25;100.00
49843;BME280;55559;48.898;9.184;2023-04-22T08:27:52;97793.09;;;16.30;100.00
49843;BME280;55559;48.898;9.184;2023-04-22T08:30:20;97787.25;;;16.42;100.00
49843;BME280;55559;48.898;9.184;2023-04-22T08:32:48;97791.19;;;16.46;100.00
49843;BME280;55559;48.898;9.184;2023-04-22T08:35:18;97796.31;;;16.62;100.00
49843;BME280;55559;48.898;9.184;2023-04-22T08:37:46;97798.88;;;16.70;99.61
49843;BME280;55559;48.898;9.184;2023-04-22T08:40:14;97793.00;;;16.60;97.28
49843;BME280;55559;48.898;9.184;2023-04-22T08:42:42;97793.00;;;16.82;92.39
49843;BME280;55559;48.898;9.184;2023-04-22T08:45:10;97802.84;;;16.74;92.93
49843;BME280;55559;48.898;9.184;2023-04-22T08:47:39;97796.25;;;16.77;92.19
49843;BME280;55559;48.898;9.184;2023-04-22T08:50:08;97785.97;;;17.02;92.41
49843;BME280;55559;48.898;9.184;2023-04-22T08:52:36;97786.03;;;17.37;89.51
49843;BME280;55559;48.898;9.184;2023-04-22T08:55:06;97792.13;;;17.53;85.12
49843;BME280;55559;48.898;9.184;2023-04-22T08:57:35;97787.22;;;17.63;84.49
49843;BME280;55559;48.898;9.184;2023-04-22T09:00:03;97785.16;;;18.00;82.50
49843;BME280;55559;48.898;9.184;2023-04-22T09:02:32;97794.03;;;18.00;80.23
49843;BME280;55559;48.898;9.184;2023-04-22T09:05:00;97783.75;;;18.17;80.26
49843;BME280;55559;48.898;9.184;2023-04-22T09:07:29;97777.66;;;18.50;78.94
49843;BME280;55559;48.898;9.184;2023-04-22T09:09:57;97777.00;;;18.42;76.70
49843;BME280;55559;48.898;9.184;2023-04-22T09:12:26;97776.22;;;18.68;76.79
49843;BME280;55559;48.898;9.184;2023-04-22T09:14:54;97776.06;;;18.83;74.78
49843;BME280;55559;48.898;9.184;2023-04-22T09:17:29;97770.47;;;18.98;75.25
49843;BME280;55559;48.898;9.184;2023-04-22T09:19:58;97769.81;;;19.15;75.12
49843;BME280;55559;48.898;9.184;2023-04-22T09:22:26;97766.69;;;19.25;73.40
49843;BME280;55559;48.898;9.184;2023-04-22T09:24:54;97765.06;;;19.18;73.07
49843;BME280;55559;48.898;9.184;2023-04-22T09:27:23;97769.19;;;19.20;73.82
49843;BME280;55559;48.898;9.184;2023-04-22T09:29:52;97768.75;;;19.43;72.20
49843;BME280;55559;48.898;9.184;2023-04-22T09:32:23;97764.59;;;19.34;71.71
49843;BME280;55559;48.898;9.184;2023-04-22T09:34:53;97767.84;;;19.69;70.25
49843;BME280;55559;48.898;9.184;2023-04-22T09:37:24;97767.50;;;19.46;70.95
49843;BME280;55559;48.898;9.184;2023-04-22T09:39:52;97762.44;;;19.69;70.24
49843;BME280;55559;48.898;9.184;2023-04-22T09:42:20;97768.81;;;20.02;69.14
49843;BME280;55559;48.898;9.184;2023-04-22T09:44:49;97766.22;;;19.75;70.04
49843;BME280;55559;48.898;9.184;2023-04-22T09:47:20;97768.69;;;20.22;69.26
49843;BME280;55559;48.898;9.184;2023-04-22T09:49:48;97758.44;;;20.44;65.94
49843;BME280;55559;48.898;9.184;2023-04-22T09:52:23;97760.19;;;20.57;63.75
49843;BME280;55559;48.898;9.184;2023-04-22T09:54:53;97754.50;;;20.72;61.52
49843;BME280;55559;48.898;9.184;2023-04-22T09:57:20;97752.47;;;20.92;57.68
49843;BME280;55559;48.898;9.184;2023-04-22T09:59:49;97752.25;;;20.94;57.73
49843;BME280;55559;48.898;9.184;2023-04-22T10:02:27;97750.31;;;21.01;55.51
49843;BME280;55559;48.898;9.184;2023-04-22T10:04:55;97744.53;;;20.97;56.52
49843;BME280;55559;48.898;9.184;2023-04-22T10:07:23;97734.63;;;21.16;54.59
49843;BME280;55559;48.898;9.184;2023-04-22T10:09:56;97732.56;;;20.87;54.81
49843;BME280;55559;48.898;9.184;2023-04-22T10:12:25;97728.16;;;20.92;56.74
49843;BME280;55559;48.898;9.184;2023-04-22T10:14:53;97730.16;;;21.04;55.41
49843;BME280;55559;48.898;9.184;2023-04-22T10:17:22;97729.44;;;21.15;53.75
49843;BME280;55559;48.898;9.184;2023-04-22T10:19:50;97726.50;;;21.16;53.08
49843;BME280;55559;48.898;9.184;2023-04-22T10:22:18;97722.19;;;21.52;52.41
49843;BME280;55559;48.898;9.184;2023-04-22T10:24:46;97722.41;;;21.69;52.26
49843;BME280;55559;48.898;9.184;2023-04-22T10:27:20;97726.31;;;21.73;50.96
49843;BME280;55559;48.898;9.184;2023-04-22T10:29:48;97726.81;;;22.01;50.81
49843;BME280;55559;48.898;9.184;2023-04-22T10:32:26;97725.00;;;22.13;48.59
49843;BME280;55559;48.898;9.184;2023-04-22T10:35:07;97721.81;;;21.86;49.75
49843;BME280;55559;48.898;9.184;2023-04-22T10:37:35;97719.63;;;21.76;49.94
49843;BME280;55559;48.898;9.184;2023-04-22T10:40:06;97718.88;;;21.87;49.68
49843;BME280;55559;48.898;9.184;2023-04-22T10:42:34;97714.25;;;22.06;49.65
49843;BME280;55559;48.898;9.184;2023-04-22T10:45:03;97711.47;;;22.43;47.66
49843;BME280;55559;48.898;9.184;2023-04-22T10:47:34;97707.63;;;22.75;46.97
49843;BME280;55559;48.898;9.184;2023-04-22T10:50:20;97706.66;;;22.57;46.59
49843;BME280;55559;48.898;9.184;2023-04-22T10:52:50;97699.84;;;22.78;46.53
49843;BME280;55559;48.898;9.184;2023-04-22T10:55:18;97705.91;;;22.92;44.82
49843;BME280;55559;48.898;9.184;2023-04-22T10:57:47;97703.66;;;23.36;42.49
49843;BME280;55559;48.898;9.184;2023-04-22T11:00:27;97695.59;;;23.65;42.60
49843;BME280;55559;48.898;9.184;2023-04-22T11:03:09;97693.25;;;23.57;41.01
49843;BME280;55559;48.898;9.184;2023-04-22T11:05:38;97698.84;;;23.79;40.40
49843;BME280;55559;48.898;9.184;2023-04-22T11:08:09;97697.34;;;23.71;39.48
49843;BME280;55559;48.898;9.184;2023-04-22T11:10:40;97694.03;;;23.69;40.03
49843;BME280;55559;48.898;9.184;2023-04-22T11:13:13;97690.50;;;23.69;39.87
49843;BME280;55559;48.898;9.184;2023-04-22T11:15:42;97696.28;;;23.72;40.80
49843;BME280;55559;48.898;9.184;2023-04-22T11:18:15;97690.50;;;24.09;40.42
49843;BME280;55559;48.898;9.184;2023-04-22T11:20:43;97697.66;;;23.99;38.27
49843;BME280;55559;48.898;9.184;2023-04-22T11:23:17;97690.00;;;23.95;38.67
49843;BME280;55559;48.898;9.184;2023-04-22T11:25:45;97692.16;;;23.82;38.05
49843;BME280;55559;48.898;9.184;2023-04-22T11:28:13;97680.53;;;24.27;37.63
49843;BME280;55559;48.898;9.184;2023-04-22T11:30:40;97685.91;;;24.39;37.36
49843;BME280;55559;48.898;9.184;2023-04-22T11:33:08;97677.47;;;24.40;37.73
49843;BME280;55559;48.898;9.184;2023-04-22T11:35:36;97674.50;;;24.42;37.32
49843;BME280;55559;48.898;9.184;2023-04-22T11:38:05;97678.94;;;24.60;37.24
49843;BME280;55559;48.898;9.184;2023-04-22T11:40:34;97658.91;;;24.83;36.82
49843;BME280;55559;48.898;9.184;2023-04-22T11:43:05;97663.13;;;24.74;37.07
49843;BME280;55559;48.898;9.184;2023-04-22T11:45:35;97665.81;;;24.91;37.30
49843;BME280;55559;48.898;9.184;2023-04-22T11:48:04;97654.97;;;25.30;35.77
49843;BME280;55559;48.898;9.184;2023-04-22T11:50:33;97655.41;;;25.21;36.56
49843;BME280;55559;48.898;9.184;2023-04-22T11:53:03;97655.31;;;25.33;36.32
49843;BME280;55559;48.898;9.184;2023-04-22T11:55:33;97661.16;;;24.69;37.15
49843;BME280;55559;48.898;9.184;2023-04-22T11:58:07;97663.69;;;24.76;37.23
49843;BME280;55559;48.898;9.184;2023-04-22T12:00:36;97651.84;;;24.65;37.34
49843;BME280;55559;48.898;9.184;2023-04-22T12:03:11;97656.44;;;24.47;36.54
49843;BME280;55559;48.898;9.184;2023-04-22T12:05:40;97659.25;;;24.69;34.84
49843;BME280;55559;48.898;9.184;2023-04-22T12:08:10;97651.41;;;24.90;35.82
49843;BME280;55559;48.898;9.184;2023-04-22T12:10:42;97654.97;;;24.74;36.80
49843;BME280;55559;48.898;9.184;2023-04-22T12:13:17;97656.84;;;24.90;36.63
49843;BME280;55559;48.898;9.184;2023-04-22T12:15:45;97650.00;;;24.87;35.72
49843;BME280;55559;48.898;9.184;2023-04-22T12:18:13;97643.94;;;25.19;35.98
49843;BME280;55559;48.898;9.184;2023-04-22T12:20:41;97652.09;;;24.63;36.19
49843;BME280;55559;48.898;9.184;2023-04-22T12:23:16;97641.91;;;24.25;35.82
49843;BME280;55559;48.898;9.184;2023-04-22T12:25:43;97651.50;;;23.99;36.26
49843;BME280;55559;48.898;9.184;2023-04-22T12:28:11;97655.31;;;23.86;36.80
49843;BME280;55559;48.898;9.184;2023-04-22T12:30:39;97662.81;;;23.55;37.01
49843;BME280;55559;48.898;9.184;2023-04-22T12:33:06;97650.13;;;23.32;37.48
49843;BME280;55559;48.898;9.184;2023-04-22T12:35:35;97654.50;;;23.21;38.62
49843;BME280;55559;48.898;9.184;2023-04-22T12:38:02;97654.38;;;23.39;37.99
49843;BME280;55559;48.898;9.184;2023-04-22T12:40:31;97639.25;;;23.44;37.83
49843;BME280;55559;48.898;9.184;2023-04-22T12:42:58;97650.16;;;23.20;40.16
49843;BME280;55559;48.898;9.184;2023-04-22T12:45:28;97654.25;;;23.34;39.17
49843;BME280;55559;48.898;9.184;2023-04-22T12:47:55;97656.47;;;23.49;38.31
49843;BME280;55559;48.898;9.184;2023-04-22T12:50:23;97649.63;;;23.47;38.57
49843;BME280;55559;48.898;9.184;2023-04-22T12:52:50;97657.13;;;23.16;38.48
49843;BME280;55559;48.898;9.184;2023-04-22T12:55:18;97666.75;;;23.24;39.77
49843;BME280;55559;48.898;9.184;2023-04-22T12:57:48;97670.38;;;23.53;39.61
49843;BME280;55559;48.898;9.184;2023-04-22T13:00:16;97658.03;;;23.33;40.34
49843;BME280;55559;48.898;9.184;2023-04-22T13:02:46;97664.88;;;23.76;40.44
49843;BME280;55559;48.898;9.184;2023-04-22T13:05:15;97656.78;;;23.65;40.63
49843;BME280;55559;48.898;9.184;2023-04-22T13:07:42;97659.44;;;23.88;41.08